Time;durP1;ratioP1;P1;durP2;ratioP2;P2;SDS_P1;SDS_P2;PMS_P1;PMS_P2;Temp;Humidity;BMP_temperature;BMP_pressure;BME280_temperature;BME280_humidity;BME280_pressure;Samples;Min_cycle;Max_cycle;Signal;HPM_P1;HPM_P2
2022/09/30 00:01:43;;;;;;;13.10;9.70;;;;;;;16.72;100.00;100521.34;1720939;83;21106;-72
2022/09/30 00:04:15;;;;;;;11.80;9.60;;;;;;;16.80;100.00;100528.61;1721170;83;21432;-72
2022/09/30 00:06:42;;;;;;;12.23;9.50;;;;;;;16.87;100.00;100532.49;1721129;83;21008;-72
2022/09/30 00:09:13;;;;;;;13.03;9.60;;;;;;;16.89;100.00;100530.61;1721245;82;21083;-71
2022/09/30 00:11:42;;;;;;;11.85;9.43;;;;;;;16.95;100.00;100536.69;1720973;83;21558;-71
2022/09/30 00:14:22;;;;;;;13.18;9.43;;;;;;;16.98;100.00;100544.25;1720989;83;21044;-72
2022/09/30 00:16:49;;;;;;;12.33;9.48;;;;;;;17.04;100.00;100538.27;1721134;83;21008;-72
2022/09/30 00:19:17;;;;;;;10.70;9.35;;;;;;;17.00;100.00;100535.05;1721012;83;21118;-72
2022/09/30 00:21:44;;;;;;;13.25;9.48;;;;;;;16.96;100.00;100529.23;1720824;83;21074;-72
2022/09/30 00:24:12;;;;;;;12.90;9.63;;;;;;;16.92;100.00;100526.48;1720698;83;21063;-72
2022/09/30 00:26:40;;;;;;;12.63;10.00;;;;;;;16.87;100.00;100531.19;1721221;83;21098;-71
2022/09/30 00:29:09;;;;;;;13.25;10.08;;;;;;;16.86;100.00;100533.41;1721270;83;21563;-72
2022/09/30 00:31:36;;;;;;;13.98;9.93;;;;;;;16.81;100.00;100527.25;1720975;83;21614;-72
2022/09/30 00:34:07;;;;;;;13.08;10.23;;;;;;;16.74;100.00;100519.47;1720844;83;21091;-71
2022/09/30 00:36:48;;;;;;;14.53;10.60;;;;;;;16.73;100.00;100511.33;1708680;83;20990;-71
2022/09/30 00:39:19;;;;;;;13.58;10.55;;;;;;;16.68;100.00;100514.70;1690177;85;21125;-72
2022/09/30 00:41:50;;;;;;;14.47;11.00;;;;;;;16.63;100.00;100511.60;1690782;85;21057;-71
2022/09/30 00:44:52;;;;;;;14.38;11.05;;;;;;;16.60;100.00;100505.30;1690704;85;21057;-71
2022/09/30 00:47:43;;;;;;;16.48;11.73;;;;;;;16.65;100.00;100501.93;1690831;85;21585;-71
2022/09/30 00:50:21;;;;;;;17.62;11.22;;;;;;;16.70;100.00;100497.23;1687316;85;21092;-72
2022/09/30 00:53:15;;;;;;;15.60;11.20;;;;;;;16.76;100.00;100503.30;1690882;85;21123;-73
2022/09/30 00:55:57;;;;;;;18.07;12.37;;;;;;;16.73;100.00;100503.52;1690904;85;21562;-72
2022/09/30 00:58:47;;;;;;;40.65;15.48;;;;;;;16.69;100.00;100499.95;1690593;85;21108;-72
2022/09/30 01:01:15;;;;;;;19.30;12.45;;;;;;;16.70;100.00;100489.91;1690563;85;21116;-71
2022/09/30 01:04:00;;;;;;;19.70;13.08;;;;;;;16.68;100.00;100486.58;1749859;81;21051;-71
2022/09/30 01:06:28;;;;;;;18.32;13.45;;;;;;;16.72;100.00;100482.83;1755981;81;21161;-72
2022/09/30 01:08:57;;;;;;;18.35;13.48;;;;;;;16.63;100.00;100485.14;1756468;80;21559;-72
2022/09/30 01:11:27;;;;;;;19.98;13.40;;;;;;;16.57;100.00;100488.16;1756575;81;21031;-72
2022/09/30 01:13:59;;;;;;;19.45;13.58;;;;;;;16.53;100.00;100484.59;1757650;81;21566;-72
2022/09/30 01:16:59;;;;;;;20.52;13.88;;;;;;;16.49;100.00;100470.98;1757625;81;21087;-73
2022/09/30 01:20:01;;;;;;;21.17;14.47;;;;;;;16.47;100.00;100475.92;1755253;81;21051;-72
2022/09/30 01:23:25;;;;;;;20.95;14.25;;;;;;;16.41;100.00;100475.40;1758807;80;21078;-71
2022/09/30 01:26:21;;;;;;;21.65;15.68;;;;;;;16.37;100.00;100463.56;1758077;81;21066;-72
2022/09/30 01:29:38;;;;;;;21.10;15.90;;;;;;;16.38;100.00;100456.59;1756032;81;21547;-72
2022/09/30 01:32:35;;;;;;;24.00;15.98;;;;;;;16.39;100.00;100445.27;1754118;81;21047;-72
2022/09/30 01:35:38;;;;;;;23.92;16.52;;;;;;;16.34;100.00;100441.70;1753862;82;21094;-72
2022/09/30 01:38:29;;;;;;;25.97;17.32;;;;;;;16.30;100.00;100442.86;1752817;81;21551;-72
2022/09/30 01:41:13;;;;;;;22.30;16.90;;;;;;;16.30;100.00;100438.10;1757340;81;21023;-72
2022/09/30 01:43:47;;;;;;;25.82;17.15;;;;;;;16.29;100.00;100439.05;1681120;81;21090;-71
2022/09/30 01:46:40;;;;;;;27.32;18.67;;;;;;;16.29;100.00;100430.78;1754559;81;21023;-72
2022/09/30 01:49:43;;;;;;;33.02;20.27;;;;;;;16.38;100.00;100428.01;1756623;81;21574;-71
2022/09/30 01:52:34;;;;;;;35.15;22.15;;;;;;;16.49;100.00;100422.91;1757767;80;21543;-72
2022/09/30 01:55:23;;;;;;;38.05;23.22;;;;;;;16.62;100.00;100411.98;1754345;81;21059;-71
2022/09/30 01:58:10;;;;;;;37.03;23.38;;;;;;;16.76;100.00;100404.99;1749312;82;21534;-72
2022/09/30 02:00:41;;;;;;;43.75;26.65;;;;;;;16.89;100.00;100410.16;1755463;81;21461;-72
2022/09/30 02:03:14;;;;;;;41.30;25.62;;;;;;;17.01;100.00;100405.37;1727575;80;21265;-71
2022/09/30 02:05:56;;;;;;;53.83;31.90;;;;;;;17.11;100.00;100400.33;1755943;81;21047;-72
2022/09/30 02:08:33;;;;;;;55.10;31.33;;;;;;;17.16;100.00;100392.56;1758000;81;21015;-72
2022/09/30 02:11:26;;;;;;;55.28;30.55;;;;;;;17.28;100.00;100382.20;1745159;81;21021;-72
2022/09/30 02:14:11;;;;;;;56.98;33.18;;;;;;;17.35;100.00;100391.19;1760250;81;21043;-72
2022/09/30 02:17:08;;;;;;;55.30;34.55;;;;;;;17.44;100.00;100408.73;1755904;81;21055;-73
2022/09/30 02:19:46;;;;;;;60.78;35.25;;;;;;;17.52;100.00;100409.47;1751157;81;20992;-72
2022/09/30 02:22:21;;;;;;;58.00;35.35;;;;;;;17.62;100.00;100411.27;1759422;81;21051;-72
2022/09/30 02:24:54;;;;;;;53.83;33.00;;;;;;;17.70;100.00;100416.34;1757199;81;21035;-72
2022/09/30 02:27:28;;;;;;;57.80;33.95;;;;;;;17.77;100.00;100423.58;1754325;82;21058;-71
2022/09/30 02:29:58;;;;;;;51.00;30.88;;;;;;;17.84;100.00;100420.55;1755524;81;21027;-72
2022/09/30 02:32:36;;;;;;;39.60;25.60;;;;;;;17.90;100.00;100420.90;1756521;81;21063;-71
2022/09/30 02:35:09;;;;;;;43.90;27.52;;;;;;;17.97;100.00;100430.39;1755083;80;21043;-72
2022/09/30 02:37:49;;;;;;;39.78;25.77;;;;;;;18.05;100.00;100428.03;1756095;81;21106;-72
2022/09/30 02:40:27;;;;;;;50.28;31.52;;;;;;;18.09;100.00;100426.84;1757127;81;21682;-72
2022/09/30 02:42:55;;;;;;;50.55;30.95;;;;;;;18.15;100.00;100429.46;1756246;81;21008;-71
2022/09/30 02:45:23;;;;;;;49.90;30.37;;;;;;;18.21;100.00;100432.89;1760320;81;21094;-72
2022/09/30 02:48:25;;;;;;;40.05;27.37;;;;;;;18.27;100.00;100431.56;1755666;80;21607;-72
2022/09/30 02:51:16;;;;;;;23.35;14.58;;;;;;;18.32;100.00;100430.75;1726758;81;21066;-72
2022/09/30 02:54:00;;;;;;;34.13;23.73;;;;;;;18.38;100.00;100431.09;1752312;81;21543;-72
2022/09/30 02:56:45;;;;;;;32.60;21.05;;;;;;;18.38;100.00;100427.19;1757593;80;21035;-72
2022/09/30 02:59:13;;;;;;;25.70;16.42;;;;;;;18.40;100.00;100420.55;1754803;81;21078;-72
2022/09/30 03:01:41;;;;;;;30.60;20.75;;;;;;;18.51;100.00;100416.64;1755246;81;21082;-72
2022/09/30 03:04:12;;;;;;;29.23;19.48;;;;;;;18.57;100.00;100414.85;1754674;81;21095;-72
2022/09/30 03:06:39;;;;;;;22.02;16.80;;;;;;;18.83;100.00;100423.69;1755894;81;21027;-73
2022/09/30 03:09:08;;;;;;;25.25;16.40;;;;;;;18.87;100.00;100426.89;1756721;81;21027;-73
2022/09/30 03:11:37;;;;;;;25.72;18.27;;;;;;;18.90;100.00;100432.70;1759235;81;21083;-74
2022/09/30 03:14:49;;;;;;;21.93;15.18;;;;;;;18.93;100.00;100438.13;1755838;81;21032;-74
2022/09/30 03:17:45;;;;;;;22.60;16.67;;;;;;;18.96;100.00;100429.59;1746879;81;21043;-74
2022/09/30 03:20:26;;;;;;;20.55;13.95;;;;;;;18.98;100.00;100439.42;1755100;81;21585;-74
2022/09/30 03:23:11;;;;;;;21.55;16.62;;;;;;;18.87;100.00;100441.23;1754269;81;21074;-74
2022/09/30 03:26:07;;;;;;;23.77;16.80;;;;;;;18.85;100.00;100439.22;1755148;81;21011;-73
2022/09/30 03:28:51;;;;;;;21.93;16.67;;;;;;;18.91;100.00;100433.52;1758269;81;21098;-74
2022/09/30 03:31:39;;;;;;;24.10;16.37;;;;;;;18.93;100.00;100424.61;1757861;81;21074;-74
2022/09/30 03:34:31;;;;;;;22.37;15.05;;;;;;;18.93;100.00;100425.09;1755369;81;21043;-74
2022/09/30 03:37:21;;;;;;;16.70;12.13;;;;;;;18.94;100.00;100430.19;1754034;81;21070;-74
2022/09/30 03:40:09;;;;;;;23.25;17.50;;;;;;;18.94;100.00;100430.19;1751442;80;21095;-73
2022/09/30 03:42:44;;;;;;;22.10;17.02;;;;;;;18.96;100.00;100437.91;1758211;81;21515;-74
2022/09/30 03:45:23;;;;;;;17.95;13.28;;;;;;;19.00;100.00;100434.91;1756675;81;21018;-75
2022/09/30 03:47:55;;;;;;;24.70;17.02;;;;;;;19.05;100.00;100435.84;1752186;81;21122;-75
2022/09/30 03:50:25;;;;;;;22.87;15.53;;;;;;;19.05;100.00;100434.53;1755224;82;21082;-74
2022/09/30 03:52:53;;;;;;;20.50;15.83;;;;;;;19.07;100.00;100434.42;1711518;82;21572;-74
2022/09/30 03:55:22;;;;;;;18.12;14.65;;;;;;;19.13;100.00;100430.83;1738354;81;21082;-74
2022/09/30 03:57:51;;;;;;;20.40;14.47;;;;;;;19.17;100.00;100436.63;1754841;82;21577;-75
2022/09/30 04:00:18;;;;;;;23.18;17.07;;;;;;;19.21;100.00;100428.91;1755784;81;21019;-75
2022/09/30 04:02:45;;;;;;;18.98;14.58;;;;;;;19.26;100.00;100436.34;1716363;82;21044;-74
2022/09/30 04:05:13;;;;;;;17.00;13.08;;;;;;;19.30;100.00;100443.83;1721554;82;21055;-74
2022/09/30 04:07:40;;;;;;;15.53;12.00;;;;;;;19.34;100.00;100450.90;1721523;83;21075;-75
2022/09/30 04:10:08;;;;;;;22.52;16.57;;;;;;;19.39;100.00;100449.58;1721468;83;21041;-75
2022/09/30 04:12:36;;;;;;;23.50;17.37;;;;;;;19.48;100.00;100457.61;1721450;83;21026;-74
2022/09/30 04:15:05;;;;;;;18.50;13.35;;;;;;;19.50;100.00;100468.75;1721363;83;21127;-75
2022/09/30 04:17:32;;;;;;;15.25;10.48;;;;;;;19.55;100.00;100461.38;1721354;83;21317;-74
2022/09/30 04:20:00;;;;;;;17.92;13.78;;;;;;;19.56;100.00;100470.37;1722820;83;21081;-74
2022/09/30 04:22:27;;;;;;;20.05;15.45;;;;;;;19.58;100.00;100478.91;1721570;83;21057;-74
2022/09/30 04:24:55;;;;;;;22.77;16.87;;;;;;;19.56;100.00;100479.51;1722335;83;21538;-75
2022/09/30 04:27:22;;;;;;;19.67;15.70;;;;;;;19.56;100.00;100475.59;1721053;83;21025;-74
2022/09/30 04:29:49;;;;;;;17.85;13.25;;;;;;;19.56;100.00;100469.55;1753985;80;21046;-74
2022/09/30 04:32:16;;;;;;;22.98;16.85;;;;;;;19.55;100.00;100465.30;1748014;80;21043;-75
2022/09/30 04:34:43;;;;;;;23.47;17.62;;;;;;;19.55;100.00;100468.73;1745674;81;21045;-74
2022/09/30 04:37:10;;;;;;;25.50;17.90;;;;;;;19.55;100.00;100465.30;1757804;80;21047;-74
2022/09/30 04:39:37;;;;;;;18.62;14.65;;;;;;;19.57;100.00;100457.67;1751847;80;21550;-73
2022/09/30 04:42:04;;;;;;;21.50;16.67;;;;;;;19.56;100.00;100448.17;1709565;82;21037;-73
2022/09/30 04:44:31;;;;;;;22.48;16.80;;;;;;;19.53;100.00;100448.45;1708739;83;21495;-73
2022/09/30 04:46:59;;;;;;;23.50;16.67;;;;;;;19.58;100.00;100453.27;1716255;83;20986;-74
2022/09/30 04:49:26;;;;;;;25.40;20.35;;;;;;;19.58;100.00;100466.33;1711312;83;21048;-74
2022/09/30 04:51:53;;;;;;;27.65;19.30;;;;;;;19.57;100.00;100449.02;1739180;80;21032;-75
2022/09/30 04:54:22;;;;;;;22.95;17.07;;;;;;;19.57;100.00;100452.45;1739383;81;21068;-74
2022/09/30 04:56:49;;;;;;;19.12;14.13;;;;;;;19.55;100.00;100454.37;1760552;81;21020;-75
2022/09/30 04:59:17;;;;;;;30.08;21.57;;;;;;;19.59;100.00;100454.95;1752484;80;21039;-75
2022/09/30 05:01:44;;;;;;;30.17;21.60;;;;;;;19.58;100.00;100456.70;1750933;80;21002;-74
2022/09/30 05:04:11;;;;;;;37.50;25.62;;;;;;;19.57;100.00;100455.06;1757540;80;20971;-74
2022/09/30 05:06:41;;;;;;;30.10;21.90;;;;;;;19.57;100.00;100448.54;1756761;80;21007;-75
2022/09/30 05:09:08;;;;;;;39.05;25.45;;;;;;;19.59;100.00;100440.09;1753260;80;21089;-74
2022/09/30 05:11:41;;;;;;;39.85;26.15;;;;;;;19.59;100.00;100445.81;1757644;80;21023;-75
2022/09/30 05:14:08;;;;;;;45.25;28.35;;;;;;;19.59;100.00;100446.63;1760108;80;21274;-74
2022/09/30 05:16:36;;;;;;;42.65;27.02;;;;;;;19.56;100.00;100458.62;1740705;81;21027;-75
2022/09/30 05:19:03;;;;;;;41.25;27.93;;;;;;;19.56;100.00;100471.67;1752651;80;20999;-75
2022/09/30 05:21:30;;;;;;;42.17;27.85;;;;;;;19.59;100.00;100477.97;1744122;80;21025;-75
2022/09/30 05:23:57;;;;;;;30.72;21.75;;;;;;;19.59;100.00;100473.23;1746499;80;21165;-74
2022/09/30 05:26:24;;;;;;;38.45;26.50;;;;;;;19.60;100.00;100469.16;1761244;80;21062;-74
2022/09/30 05:28:51;;;;;;;40.67;27.65;;;;;;;19.60;100.00;100459.20;1748639;80;21160;-74
2022/09/30 05:31:19;;;;;;;33.73;23.07;;;;;;;19.57;100.00;100459.47;1747405;80;21471;-74
2022/09/30 05:33:46;;;;;;;41.85;27.73;;;;;;;19.56;100.00;100476.08;1750342;81;21051;-74
2022/09/30 05:36:15;;;;;;;34.33;25.12;;;;;;;19.55;100.00;100481.78;1754920;80;21576;-74
2022/09/30 05:38:43;;;;;;;38.60;24.70;;;;;;;19.54;100.00;100486.64;1754678;80;21083;-74
2022/09/30 05:41:13;;;;;;;37.88;24.65;;;;;;;19.53;100.00;100479.77;1749754;81;21035;-75
2022/09/30 05:43:44;;;;;;;35.85;24.57;;;;;;;19.51;100.00;100469.94;1757659;80;20998;-73
2022/09/30 05:46:11;;;;;;;33.80;23.90;;;;;;;19.50;100.00;100464.83;1760800;80;21507;-74
2022/09/30 05:48:39;;;;;;;37.50;25.82;;;;;;;19.46;100.00;100452.50;1754138;80;21144;-75
2022/09/30 05:51:06;;;;;;;39.00;26.48;;;;;;;19.50;100.00;100477.89;1742094;80;20999;-73
2022/09/30 05:53:40;;;;;;;40.23;26.80;;;;;;;19.49;100.00;100478.38;1755461;80;21481;-73
2022/09/30 05:56:08;;;;;;;40.88;26.27;;;;;;;19.53;100.00;100489.40;1720518;82;20976;-74
2022/09/30 05:58:36;;;;;;;41.60;26.82;;;;;;;19.53;100.00;100503.27;1728649;82;21037;-74
2022/09/30 06:01:07;;;;;;;42.23;27.52;;;;;;;19.37;100.00;100496.34;1729378;82;21088;-74
2022/09/30 06:03:35;;;;;;;39.65;27.93;;;;;;;19.43;100.00;100496.33;1722390;83;21013;-73
2022/09/30 06:06:02;;;;;;;38.50;26.52;;;;;;;19.47;100.00;100501.16;1758510;80;21013;-74
2022/09/30 06:08:29;;;;;;;34.83;24.30;;;;;;;19.43;100.00;100495.84;1751325;81;20999;-72
2022/09/30 06:11:00;;;;;;;29.07;19.80;;;;;;;19.41;100.00;100492.53;1698626;83;21074;-73
2022/09/30 06:13:28;;;;;;;31.37;23.10;;;;;;;19.38;100.00;100491.00;1729009;81;21103;-73
2022/09/30 06:15:59;;;;;;;29.40;21.62;;;;;;;19.34;100.00;100486.14;1738457;80;21036;-74
2022/09/30 06:18:28;;;;;;;30.40;22.95;;;;;;;19.32;100.00;100479.77;1724167;81;21543;-74
2022/09/30 06:20:57;;;;;;;33.83;24.12;;;;;;;19.35;100.00;100482.10;1742646;81;21638;-74
2022/09/30 06:23:25;;;;;;;34.03;25.25;;;;;;;19.31;100.00;100470.26;1747222;82;21035;-74
2022/09/30 06:25:54;;;;;;;36.05;25.82;;;;;;;19.32;100.00;100454.97;1743866;81;20998;-74
2022/09/30 06:28:23;;;;;;;28.87;19.85;;;;;;;19.29;100.00;100442.16;1747483;81;21064;-74
2022/09/30 06:30:50;;;;;;;31.52;21.80;;;;;;;19.33;100.00;100428.38;1753501;81;20998;-73
2022/09/30 06:33:17;;;;;;;26.48;17.98;;;;;;;19.31;100.00;100419.84;1755215;80;21453;-74
2022/09/30 06:35:46;;;;;;;26.40;20.23;;;;;;;19.28;100.00;100418.78;1722588;83;21025;-73
2022/09/30 06:38:14;;;;;;;30.43;19.32;;;;;;;19.24;100.00;100405.63;1739729;81;21118;-74
2022/09/30 06:40:49;;;;;;;21.68;18.17;;;;;;;19.23;100.00;100402.20;1696859;83;20989;-74
2022/09/30 06:43:13;;;;;;;24.45;18.75;;;;;;;19.25;100.00;100404.70;1718513;83;21040;-73
2022/09/30 06:45:40;;;;;;;24.90;20.15;;;;;;;19.27;100.00;100402.30;1719623;82;21119;-73
2022/09/30 06:48:09;;;;;;;28.38;19.95;;;;;;;19.27;100.00;100402.30;1727167;83;21056;-74
2022/09/30 06:50:38;;;;;;;28.23;20.55;;;;;;;19.34;100.00;100406.53;1756308;80;21034;-73
2022/09/30 06:53:08;;;;;;;30.32;21.62;;;;;;;19.36;100.00;100404.16;1760663;80;21052;-71
2022/09/30 06:55:38;;;;;;;29.80;22.13;;;;;;;19.47;100.00;100403.75;1759501;81;21933;-72
2022/09/30 06:58:12;;;;;;;27.13;21.30;;;;;;;19.50;100.00;100412.13;1773091;80;21066;-72
2022/09/30 07:00:39;;;;;;;27.93;21.75;;;;;;;19.49;100.00;100409.67;1763620;80;21008;-72
2022/09/30 07:03:14;;;;;;;30.08;22.32;;;;;;;19.51;100.00;100405.97;1757926;81;21530;-73
2022/09/30 07:05:42;;;;;;;31.12;22.35;;;;;;;19.58;100.00;100404.97;1724549;82;21052;-72
2022/09/30 07:08:09;;;;;;;28.45;22.48;;;;;;;19.68;100.00;100412.38;1762461;80;21039;-73
2022/09/30 07:10:38;;;;;;;26.80;20.75;;;;;;;19.74;100.00;100409.77;1760240;80;21046;-72
2022/09/30 07:13:06;;;;;;;25.43;20.10;;;;;;;19.85;100.00;100418.84;1765356;80;21063;-74
2022/09/30 07:15:32;;;;;;;24.18;18.10;;;;;;;20.01;100.00;100440.55;1752540;80;21106;-73
2022/09/30 07:18:01;;;;;;;20.25;17.23;;;;;;;20.13;100.00;100465.67;1771561;80;21053;-73
2022/09/30 07:20:28;;;;;;;21.85;17.00;;;;;;;20.27;100.00;100472.80;1772448;80;21110;-73
2022/09/30 07:22:55;;;;;;;16.75;13.15;;;;;;;20.47;100.00;100498.05;1761939;80;21539;-73
2022/09/30 07:25:22;;;;;;;18.02;12.82;;;;;;;20.61;100.00;100525.67;1775767;80;21098;-73
2022/09/30 07:27:49;;;;;;;14.65;12.75;;;;;;;20.80;100.00;100549.75;1765468;80;21022;-74
2022/09/30 07:30:17;;;;;;;12.98;11.50;;;;;;;20.90;100.00;100571.54;1777559;80;21042;-70
2022/09/30 07:32:44;;;;;;;11.65;10.23;;;;;;;20.88;100.00;100575.26;1773567;80;21043;-72
2022/09/30 07:35:11;;;;;;;11.60;10.40;;;;;;;20.80;100.00;100583.77;1751884;80;21480;-73
2022/09/30 07:37:38;;;;;;;10.40;9.30;;;;;;;20.88;100.00;100577.38;1766673;80;21074;-73
2022/09/30 07:40:08;;;;;;;10.53;9.53;;;;;;;20.88;100.00;100564.30;1724419;83;21000;-73
2022/09/30 07:42:43;;;;;;;11.45;9.75;;;;;;;20.92;100.00;100556.53;1731222;83;21519;-73
2022/09/30 07:45:09;;;;;;;10.63;9.53;;;;;;;20.77;100.00;100544.31;1773525;80;21055;-73
2022/09/30 07:47:36;;;;;;;9.00;7.92;;;;;;;20.84;100.00;100553.76;1775928;80;21542;-74
2022/09/30 07:50:08;;;;;;;9.10;6.72;;;;;;;20.70;100.00;100560.20;1765628;80;21145;-73
2022/09/30 07:52:34;;;;;;;8.05;6.40;;;;;;;20.75;100.00;100573.70;1722465;81;21072;-73
2022/09/30 07:55:01;;;;;;;6.65;5.78;;;;;;;20.83;100.00;100566.51;1760902;81;21058;-74
2022/09/30 07:57:28;;;;;;;7.10;5.17;;;;;;;20.92;100.00;100577.47;1766886;80;21554;-72
2022/09/30 07:59:55;;;;;;;5.60;4.97;;;;;;;20.94;100.00;100597.79;1711215;82;21033;-72
2022/09/30 08:02:23;;;;;;;6.70;4.25;;;;;;;21.14;100.00;100610.95;1723654;82;21049;-72
2022/09/30 08:04:50;;;;;;;5.22;4.08;;;;;;;21.10;100.00;100612.17;1722279;83;21068;-73
2022/09/30 08:07:18;;;;;;;5.60;4.00;;;;;;;21.07;100.00;100625.55;1722105;83;21061;-72
2022/09/30 08:09:45;;;;;;;5.83;4.65;;;;;;;21.18;100.00;100637.20;1722133;83;21061;-72
2022/09/30 08:12:12;;;;;;;5.17;4.33;;;;;;;21.25;100.00;100634.41;1722023;83;21064;-72
2022/09/30 08:14:40;;;;;;;6.45;3.80;;;;;;;21.49;100.00;100634.55;1722288;83;21037;-72
2022/09/30 08:17:07;;;;;;;4.92;3.83;;;;;;;21.46;100.00;100649.23;1722319;83;21065;-72
2022/09/30 08:19:34;;;;;;;5.53;4.10;;;;;;;21.77;100.00;100656.51;1722319;83;21112;-71
2022/09/30 08:22:01;;;;;;;6.58;4.37;;;;;;;22.08;100.00;100662.47;1722154;83;21573;-72
2022/09/30 08:24:29;;;;;;;6.80;4.42;;;;;;;22.24;100.00;100668.95;1722173;82;21555;-73
2022/09/30 08:26:55;;;;;;;8.53;4.30;;;;;;;22.20;100.00;100687.58;1722266;83;21081;-73
2022/09/30 08:29:23;;;;;;;7.28;4.22;;;;;;;22.22;100.00;100679.55;1722235;83;21092;-73
2022/09/30 08:31:50;;;;;;;6.33;4.20;;;;;;;22.32;100.00;100689.61;1722279;83;21584;-73
2022/09/30 08:34:17;;;;;;;8.15;4.40;;;;;;;22.42;100.00;100700.55;1722180;83;21311;-72
2022/09/30 08:36:45;;;;;;;6.53;4.05;;;;;;;22.46;100.00;100706.68;1722382;83;21072;-73
2022/09/30 08:39:13;;;;;;;7.40;4.28;;;;;;;22.57;100.00;100709.66;1720979;83;21412;-70
2022/09/30 08:41:52;;;;;;;5.15;4.30;;;;;;;22.68;100.00;100720.47;1753432;80;21023;-73
2022/09/30 08:44:47;;;;;;;6.50;4.80;;;;;;;22.56;100.00;100725.86;1708188;82;21038;-72
2022/09/30 08:47:37;;;;;;;8.20;4.83;;;;;;;22.48;100.00;100728.36;1757566;80;21031;-74
2022/09/30 08:50:47;;;;;;;8.00;5.10;;;;;;;22.53;100.00;100721.40;1762772;80;21566;-72
2022/09/30 08:53:29;;;;;;;6.72;4.75;;;;;;;22.56;100.00;100715.36;1759910;80;21045;-74
2022/09/30 08:56:01;;;;;;;8.40;5.50;;;;;;;22.59;100.00;100719.53;1755599;80;21008;-75
2022/09/30 08:58:34;;;;;;;6.40;5.75;;;;;;;22.15;100.00;100736.97;1750738;80;21590;-74
2022/09/30 09:01:34;;;;;;;6.92;6.22;;;;;;;22.00;100.00;100730.48;1690883;82;21001;-73
2022/09/30 09:04:05;;;;;;;8.28;7.47;;;;;;;22.06;100.00;100731.25;1736141;81;21058;-73
2022/09/30 09:06:55;;;;;;;10.50;8.23;;;;;;;21.89;100.00;100720.93;1751823;80;21035;-72
2022/09/30 09:09:59;;;;;;;10.53;9.25;;;;;;;21.88;100.00;100723.68;1762198;80;21019;-72
2022/09/30 09:12:41;;;;;;;9.78;8.73;;;;;;;21.73;100.00;100730.62;1750322;80;21102;-73
2022/09/30 09:15:31;;;;;;;11.15;10.00;;;;;;;21.62;100.00;100721.58;1762448;80;21094;-72
2022/09/30 09:18:28;;;;;;;13.15;10.40;;;;;;;21.57;100.00;100726.38;1753961;80;21077;-73
2022/09/30 09:20:58;;;;;;;13.05;11.53;;;;;;;21.50;100.00;100713.48;1747126;80;21086;-72
2022/09/30 09:23:30;;;;;;;14.18;11.63;;;;;;;21.44;100.00;100725.80;1760729;80;21010;-73
2022/09/30 09:25:57;;;;;;;13.48;11.85;;;;;;;21.28;100.00;100731.49;1734266;80;21018;-72
2022/09/30 09:28:39;;;;;;;14.75;12.95;;;;;;;21.26;100.00;100721.14;1758171;80;21039;-73
2022/09/30 09:31:15;;;;;;;16.90;12.68;;;;;;;21.30;100.00;100724.34;1713402;83;21153;-70
2022/09/30 09:33:42;;;;;;;18.62;13.68;;;;;;;21.33;100.00;100727.53;1714747;82;21546;-73
2022/09/30 09:36:33;;;;;;;18.35;13.50;;;;;;;21.22;100.00;100731.53;1702176;83;21067;-72
2022/09/30 09:39:30;;;;;;;18.77;13.78;;;;;;;21.08;100.00;100713.56;1674351;83;21114;-73
2022/09/30 09:42:20;;;;;;;20.32;14.25;;;;;;;20.98;100.00;100697.80;1714743;81;21032;-73
2022/09/30 09:45:17;;;;;;;14.28;11.68;;;;;;;20.91;100.00;100687.04;1692426;85;21882;-73
2022/09/30 09:47:56;;;;;;;13.72;11.88;;;;;;;20.89;100.00;100684.21;1666143;83;21043;-73
2022/09/30 09:50:38;;;;;;;19.50;13.13;;;;;;;20.87;100.00;100671.25;1682979;84;21126;-73
2022/09/30 09:53:19;;;;;;;18.67;13.60;;;;;;;20.85;100.00;100665.81;1694550;84;21095;-73
2022/09/30 09:55:49;;;;;;;19.42;12.85;;;;;;;20.84;100.00;100658.91;1693265;85;21086;-73
2022/09/30 09:58:16;;;;;;;16.77;13.35;;;;;;;20.83;100.00;100655.47;1693267;85;21522;-70
2022/09/30 10:03:22;;;;;;;19.73;15.68;;;;;;;20.85;100.00;100643.08;1694048;85;21344;-74
2022/09/30 10:06:08;;;;;;;19.37;15.32;;;;;;;20.76;100.00;100630.31;1694303;84;21456;-74
2022/09/30 10:08:41;;;;;;;20.30;15.53;;;;;;;20.78;100.00;100624.92;1693980;85;21535;-74
2022/09/30 10:11:22;;;;;;;18.15;14.45;;;;;;;20.75;100.00;100614.73;1692635;84;21055;-74
2022/09/30 10:13:54;;;;;;;21.05;15.85;;;;;;;20.83;100.00;100603.13;1694375;85;21039;-74
2022/09/30 10:16:29;;;;;;;19.42;15.50;;;;;;;20.74;100.00;100575.98;1694335;85;21055;-73
2022/09/30 10:18:58;;;;;;;24.57;17.90;;;;;;;20.83;100.00;100570.92;1694455;85;21615;-72
2022/09/30 10:21:28;;;;;;;23.42;18.00;;;;;;;21.07;100.00;100570.09;1694313;85;21054;-73
2022/09/30 10:23:56;;;;;;;23.35;17.70;;;;;;;21.32;100.00;100578.41;1694257;85;21059;-73
2022/09/30 10:26:26;;;;;;;21.25;16.45;;;;;;;21.55;100.00;100577.23;1694347;85;21583;-73
2022/09/30 10:29:00;;;;;;;22.48;16.62;;;;;;;21.78;100.00;100580.88;1694475;85;21051;-73
2022/09/30 10:31:37;;;;;;;19.10;15.95;;;;;;;22.17;100.00;100591.31;1694664;85;21120;-72
2022/09/30 10:34:24;;;;;;;21.85;16.73;;;;;;;22.63;100.00;100604.59;1694058;85;21343;-74
2022/09/30 10:36:53;;;;;;;16.45;13.85;;;;;;;23.22;100.00;100616.53;1694207;85;21059;-73
2022/09/30 10:39:30;;;;;;;16.90;14.60;;;;;;;23.83;100.00;100636.05;1694084;83;21102;-73
2022/09/30 10:42:11;;;;;;;14.85;11.15;;;;;;;24.25;100.00;100655.61;1694322;85;20995;-73
2022/09/30 10:44:52;;;;;;;16.80;13.03;;;;;;;24.66;100.00;100674.36;1694169;85;21472;-73
2022/09/30 10:47:25;;;;;;;17.85;15.10;;;;;;;25.09;100.00;100709.47;1692615;85;21055;-73
2022/09/30 10:50:04;;;;;;;14.07;11.88;;;;;;;25.09;100.00;100709.47;1694234;85;21122;-73
2022/09/30 10:52:35;;;;;;;14.10;11.95;;;;;;;25.35;100.00;100724.76;1694365;84;21144;-73
2022/09/30 10:55:23;;;;;;;17.20;14.53;;;;;;;25.45;100.00;100747.54;1688296;84;21013;-73
2022/09/30 10:57:53;;;;;;;17.45;14.20;;;;;;;25.18;100.00;100748.02;1695019;84;21106;-73
2022/09/30 11:00:24;;;;;;;16.35;13.83;;;;;;;24.63;100.00;100779.94;1694258;84;21096;-72
2022/09/30 11:03:09;;;;;;;18.17;15.18;;;;;;;24.29;100.00;100769.61;1694370;85;21034;-74
2022/09/30 11:05:44;;;;;;;19.70;14.87;;;;;;;24.08;100.00;100751.47;1693723;85;21046;-73
2022/09/30 11:08:34;;;;;;;17.75;14.50;;;;;;;23.92;100.00;100743.42;1694347;85;21515;-74
2022/09/30 11:11:17;;;;;;;20.55;15.32;;;;;;;23.75;100.00;100734.02;1693940;85;21028;-72
2022/09/30 11:14:07;;;;;;;25.85;16.73;;;;;;;23.57;100.00;100718.72;1694326;85;21023;-73
2022/09/30 11:17:11;;;;;;;22.77;17.48;;;;;;;23.47;100.00;100687.73;1694152;85;21106;-72
2022/09/30 11:20:08;;;;;;;19.15;15.75;;;;;;;23.52;100.00;100676.27;1694542;85;21035;-72
2022/09/30 11:22:46;;;;;;;20.50;15.95;;;;;;;23.63;100.00;100668.19;1694054;85;21121;-74
2022/09/30 11:25:17;;;;;;;14.68;12.18;;;;;;;23.75;100.00;100682.77;1693568;85;21087;-73
2022/09/30 11:28:22;;;;;;;12.28;10.40;;;;;;;23.63;100.00;100685.27;1694292;85;21008;-73
2022/09/30 11:31:25;;;;;;;10.58;9.33;;;;;;;23.69;100.00;100696.50;1694614;85;21079;-72
2022/09/30 11:33:58;;;;;;;12.15;10.95;;;;;;;23.86;100.00;100685.69;1703778;82;21059;-73
2022/09/30 11:37:06;;;;;;;16.45;11.15;;;;;;;23.87;100.00;100690.48;1743859;81;21519;-72
2022/09/30 11:39:44;;;;;;;16.23;13.35;;;;;;;23.79;100.00;100685.96;1726409;82;21035;-74
2022/09/30 11:42:41;;;;;;;16.35;12.78;;;;;;;23.62;100.00;100670.47;1687376;83;21038;-74
2022/09/30 11:45:33;;;;;;;19.30;15.78;;;;;;;23.55;100.00;100657.10;1683594;83;21044;-74